sensor_id;sensor_type;location;lat;lon;timestamp;P1;durP1;ratioP1;P2;durP2;ratioP2
9080;SDS011;13509;50.760;6.080;2023-12-20T00:02:03;13.57;;;8.90;;
9080;SDS011;13509;50.760;6.080;2023-12-20T00:04:31;11.87;;;8.73;;
9080;SDS011;13509;50.760;6.080;2023-12-20T00:07:00;9.93;;;7.63;;
9080;SDS011;13509;50.760;6.080;2023-12-20T00:09:29;9.77;;;6.80;;
9080;SDS011;13509;50.760;6.080;2023-12-20T00:11:57;8.13;;;5.97;;
9080;SDS011;13509;50.760;6.080;2023-12-20T00:14:27;8.90;;;6.63;;
9080;SDS011;13509;50.760;6.080;2023-12-20T00:16:58;9.37;;;7.30;;
9080;SDS011;13509;50.760;6.080;2023-12-20T00:19:27;11.20;;;8.13;;
9080;SDS011;13509;50.760;6.080;2023-12-20T00:21:55;12.13;;;7.87;;
9080;SDS011;13509;50.760;6.080;2023-12-20T00:24:25;11.17;;;7.93;;
9080;SDS011;13509;50.760;6.080;2023-12-20T00:26:54;13.40;;;8.70;;
9080;SDS011;13509;50.760;6.080;2023-12-20T00:29:22;13.17;;;8.77;;
9080;SDS011;13509;50.760;6.080;2023-12-20T00:31:52;12.43;;;7.80;;
9080;SDS011;13509;50.760;6.080;2023-12-20T00:34:20;14.93;;;8.47;;
9080;SDS011;13509;50.760;6.080;2023-12-20T00:36:48;16.97;;;8.93;;
9080;SDS011;13509;50.760;6.080;2023-12-20T00:39:17;18.63;;;8.70;;
9080;SDS011;13509;50.760;6.080;2023-12-20T00:41:45;18.17;;;10.27;;
9080;SDS011;13509;50.760;6.080;2023-12-20T00:44:13;17.73;;;10.70;;
9080;SDS011;13509;50.760;6.080;2023-12-20T00:46:41;19.10;;;12.07;;
9080;SDS011;13509;50.760;6.080;2023-12-20T00:49:11;19.67;;;11.50;;
9080;SDS011;13509;50.760;6.080;2023-12-20T00:51:39;18.50;;;9.63;;
9080;SDS011;13509;50.760;6.080;2023-12-20T00:54:08;15.93;;;8.30;;
9080;SDS011;13509;50.760;6.080;2023-12-20T00:56:36;13.60;;;6.37;;
9080;SDS011;13509;50.760;6.080;2023-12-20T00:59:04;17.60;;;6.53;;
9080;SDS011;13509;50.760;6.080;2023-12-20T01:01:33;14.57;;;6.17;;
9080;SDS011;13509;50.760;6.080;2023-12-20T01:04:01;12.43;;;5.10;;
9080;SDS011;13509;50.760;6.080;2023-12-20T01:06:47;10.87;;;4.30;;
9080;SDS011;13509;50.760;6.080;2023-12-20T01:09:18;11.30;;;3.37;;
9080;SDS011;13509;50.760;6.080;2023-12-20T01:11:50;9.33;;;3.23;;
9080;SDS011;13509;50.760;6.080;2023-12-20T01:14:19;13.13;;;3.27;;
9080;SDS011;13509;50.760;6.080;2023-12-20T01:16:47;10.20;;;3.23;;
9080;SDS011;13509;50.760;6.080;2023-12-20T01:19:15;15.67;;;3.73;;
9080;SDS011;13509;50.760;6.080;2023-12-20T01:21:45;17.93;;;4.07;;
9080;SDS011;13509;50.760;6.080;2023-12-20T01:24:14;16.57;;;4.23;;
9080;SDS011;13509;50.760;6.080;2023-12-20T01:26:42;12.50;;;4.50;;
9080;SDS011;13509;50.760;6.080;2023-12-20T01:29:10;17.73;;;3.83;;
9080;SDS011;13509;50.760;6.080;2023-12-20T01:31:42;13.83;;;3.63;;
9080;SDS011;13509;50.760;6.080;2023-12-20T01:34:17;14.53;;;4.80;;
9080;SDS011;13509;50.760;6.080;2023-12-20T01:36:56;14.17;;;4.47;;
9080;SDS011;13509;50.760;6.080;2023-12-20T01:39:24;16.23;;;4.60;;
9080;SDS011;13509;50.760;6.080;2023-12-20T01:41:56;15.77;;;3.80;;
9080;SDS011;13509;50.760;6.080;2023-12-20T01:44:28;13.00;;;4.03;;
9080;SDS011;13509;50.760;6.080;2023-12-20T01:47:00;10.07;;;4.20;;
9080;SDS011;13509;50.760;6.080;2023-12-20T01:49:29;14.00;;;3.73;;
9080;SDS011;13509;50.760;6.080;2023-12-20T01:51:59;15.33;;;4.87;;
9080;SDS011;13509;50.760;6.080;2023-12-20T01:58:05;9.23;;;3.43;;
9080;SDS011;13509;50.760;6.080;2023-12-20T02:00:48;11.33;;;3.47;;
9080;SDS011;13509;50.760;6.080;2023-12-20T02:03:17;16.57;;;4.30;;
9080;SDS011;13509;50.760;6.080;2023-12-20T02:05:46;15.40;;;3.93;;
9080;SDS011;13509;50.760;6.080;2023-12-20T02:08:16;10.70;;;4.23;;
9080;SDS011;13509;50.760;6.080;2023-12-20T02:10:44;11.07;;;3.97;;
9080;SDS011;13509;50.760;6.080;2023-12-20T02:13:13;11.70;;;4.10;;
9080;SDS011;13509;50.760;6.080;2023-12-20T02:15:41;17.10;;;4.70;;
9080;SDS011;13509;50.760;6.080;2023-12-20T02:18:10;11.77;;;4.47;;
9080;SDS011;13509;50.760;6.080;2023-12-20T02:20:41;16.23;;;5.20;;
9080;SDS011;13509;50.760;6.080;2023-12-20T02:23:11;10.53;;;4.60;;
9080;SDS011;13509;50.760;6.080;2023-12-20T02:25:39;14.73;;;5.07;;
9080;SDS011;13509;50.760;6.080;2023-12-20T02:28:08;12.80;;;5.23;;
9080;SDS011;13509;50.760;6.080;2023-12-20T02:30:36;13.33;;;5.07;;
9080;SDS011;13509;50.760;6.080;2023-12-20T02:33:05;14.97;;;5.57;;
9080;SDS011;13509;50.760;6.080;2023-12-20T02:35:35;14.30;;;5.30;;
9080;SDS011;13509;50.760;6.080;2023-12-20T02:38:07;16.37;;;5.57;;
9080;SDS011;13509;50.760;6.080;2023-12-20T02:40:41;15.90;;;5.80;;
9080;SDS011;13509;50.760;6.080;2023-12-20T02:43:15;16.70;;;6.27;;
9080;SDS011;13509;50.760;6.080;2023-12-20T02:45:43;16.10;;;6.20;;
9080;SDS011;13509;50.760;6.080;2023-12-20T02:48:12;15.67;;;5.73;;
9080;SDS011;13509;50.760;6.080;2023-12-20T02:50:40;20.77;;;5.97;;
9080;SDS011;13509;50.760;6.080;2023-12-20T02:53:09;12.30;;;5.27;;
9080;SDS011;13509;50.760;6.080;2023-12-20T02:55:37;13.90;;;5.60;;
9080;SDS011;13509;50.760;6.080;2023-12-20T02:58:05;23.87;;;5.53;;
9080;SDS011;13509;50.760;6.080;2023-12-20T03:00:34;15.87;;;5.93;;
9080;SDS011;13509;50.760;6.080;2023-12-20T03:03:02;13.40;;;5.60;;
9080;SDS011;13509;50.760;6.080;2023-12-20T03:05:31;15.53;;;5.10;;
9080;SDS011;13509;50.760;6.080;2023-12-20T03:07:59;14.67;;;5.07;;
9080;SDS011;13509;50.760;6.080;2023-12-20T03:10:27;16.97;;;7.07;;
9080;SDS011;13509;50.760;6.080;2023-12-20T03:12:56;14.13;;;5.33;;
9080;SDS011;13509;50.760;6.080;2023-12-20T03:15:25;15.00;;;5.87;;
9080;SDS011;13509;50.760;6.080;2023-12-20T03:17:54;16.30;;;6.00;;
9080;SDS011;13509;50.760;6.080;2023-12-20T03:20:22;19.37;;;6.13;;
9080;SDS011;13509;50.760;6.080;2023-12-20T03:22:52;23.37;;;6.30;;
9080;SDS011;13509;50.760;6.080;2023-12-20T03:25:20;13.70;;;5.67;;
9080;SDS011;13509;50.760;6.080;2023-12-20T03:27:48;15.90;;;5.40;;
9080;SDS011;13509;50.760;6.080;2023-12-20T03:30:17;16.33;;;5.67;;
9080;SDS011;13509;50.760;6.080;2023-12-20T03:32:47;10.40;;;4.90;;
9080;SDS011;13509;50.760;6.080;2023-12-20T03:35:15;17.40;;;6.77;;
9080;SDS011;13509;50.760;6.080;2023-12-20T03:37:43;16.00;;;5.73;;
9080;SDS011;13509;50.760;6.080;2023-12-20T03:40:12;17.30;;;6.03;;
9080;SDS011;13509;50.760;6.080;2023-12-20T03:42:41;16.03;;;5.57;;
9080;SDS011;13509;50.760;6.080;2023-12-20T03:45:09;10.40;;;5.80;;
9080;SDS011;13509;50.760;6.080;2023-12-20T03:47:37;19.90;;;6.50;;
9080;SDS011;13509;50.760;6.080;2023-12-20T03:50:07;15.23;;;6.17;;
9080;SDS011;13509;50.760;6.080;2023-12-20T03:52:36;13.60;;;5.77;;
9080;SDS011;13509;50.760;6.080;2023-12-20T03:55:04;13.20;;;5.43;;
9080;SDS011;13509;50.760;6.080;2023-12-20T03:57:33;19.33;;;6.03;;
9080;SDS011;13509;50.760;6.080;2023-12-20T04:00:01;14.07;;;5.83;;
9080;SDS011;13509;50.760;6.080;2023-12-20T04:02:30;19.17;;;5.57;;
9080;SDS011;13509;50.760;6.080;2023-12-20T04:04:58;16.47;;;6.03;;
9080;SDS011;13509;50.760;6.080;2023-12-20T04:07:33;19.27;;;6.17;;
9080;SDS011;13509;50.760;6.080;2023-12-20T04:10:10;16.43;;;5.43;;
9080;SDS011;13509;50.760;6.080;2023-12-20T04:12:39;10.80;;;4.77;;
9080;SDS011;13509;50.760;6.080;2023-12-20T04:15:07;11.33;;;5.20;;
9080;SDS011;13509;50.760;6.080;2023-12-20T04:17:38;14.03;;;4.97;;
9080;SDS011;13509;50.760;6.080;2023-12-20T04:20:07;14.70;;;4.90;;
9080;SDS011;13509;50.760;6.080;2023-12-20T04:22:37;14.13;;;5.23;;
9080;SDS011;13509;50.760;6.080;2023-12-20T04:25:05;13.57;;;4.40;;
9080;SDS011;13509;50.760;6.080;2023-12-20T04:27:34;14.23;;;4.77;;
9080;SDS011;13509;50.760;6.080;2023-12-20T04:30:02;22.33;;;5.30;;
9080;SDS011;13509;50.760;6.080;2023-12-20T04:32:30;16.47;;;4.53;;
9080;SDS011;13509;50.760;6.080;2023-12-20T04:35:03;18.63;;;4.97;;
9080;SDS011;13509;50.760;6.080;2023-12-20T04:37:51;10.87;;;4.20;;
9080;SDS011;13509;50.760;6.080;2023-12-20T04:40:30;17.87;;;4.97;;
9080;SDS011;13509;50.760;6.080;2023-12-20T04:42:58;20.50;;;5.10;;
9080;SDS011;13509;50.760;6.080;2023-12-20T04:45:26;12.63;;;4.30;;
9080;SDS011;13509;50.760;6.080;2023-12-20T04:47:55;15.57;;;4.53;;
9080;SDS011;13509;50.760;6.080;2023-12-20T04:50:29;11.17;;;4.03;;
9080;SDS011;13509;50.760;6.080;2023-12-20T04:53:02;15.73;;;5.50;;
9080;SDS011;13509;50.760;6.080;2023-12-20T04:55:31;13.67;;;4.10;;
9080;SDS011;13509;50.760;6.080;2023-12-20T04:57:59;15.43;;;4.67;;
9080;SDS011;13509;50.760;6.080;2023-12-20T05:00:28;14.67;;;4.57;;
9080;SDS011;13509;50.760;6.080;2023-12-20T05:02:56;14.73;;;4.30;;
9080;SDS011;13509;50.760;6.080;2023-12-20T05:05:24;15.87;;;4.00;;
9080;SDS011;13509;50.760;6.080;2023-12-20T05:07:53;12.83;;;4.33;;
9080;SDS011;13509;50.760;6.080;2023-12-20T05:10:23;15.50;;;4.40;;
9080;SDS011;13509;50.760;6.080;2023-12-20T05:12:52;16.23;;;4.63;;
9080;SDS011;13509;50.760;6.080;2023-12-20T05:15:20;17.40;;;4.87;;
9080;SDS011;13509;50.760;6.080;2023-12-20T05:17:49;14.10;;;4.73;;
9080;SDS011;13509;50.760;6.080;2023-12-20T05:20:17;19.13;;;4.90;;
9080;SDS011;13509;50.760;6.080;2023-12-20T05:22:45;18.20;;;4.40;;
9080;SDS011;13509;50.760;6.080;2023-12-20T05:25:14;22.13;;;5.27;;
9080;SDS011;13509;50.760;6.080;2023-12-20T05:27:44;13.93;;;4.97;;
9080;SDS011;13509;50.760;6.080;2023-12-20T05:30:13;16.53;;;4.87;;
9080;SDS011;13509;50.760;6.080;2023-12-20T05:32:41;14.83;;;4.63;;
9080;SDS011;13509;50.760;6.080;2023-12-20T05:35:10;15.63;;;4.93;;
9080;SDS011;13509;50.760;6.080;2023-12-20T05:37:38;11.60;;;5.00;;
9080;SDS011;13509;50.760;6.080;2023-12-20T05:40:15;17.77;;;5.00;;
9080;SDS011;13509;50.760;6.080;2023-12-20T05:42:47;15.83;;;4.73;;
9080;SDS011;13509;50.760;6.080;2023-12-20T05:45:17;17.30;;;4.83;;
9080;SDS011;13509;50.760;6.080;2023-12-20T05:47:46;14.50;;;4.27;;
9080;SDS011;13509;50.760;6.080;2023-12-20T05:50:14;18.53;;;4.93;;
9080;SDS011;13509;50.760;6.080;2023-12-20T05:52:43;15.13;;;4.93;;
9080;SDS011;13509;50.760;6.080;2023-12-20T05:55:11;22.17;;;4.93;;
9080;SDS011;13509;50.760;6.080;2023-12-20T05:57:40;19.10;;;5.90;;
9080;SDS011;13509;50.760;6.080;2023-12-20T06:00:12;18.07;;;4.80;;
9080;SDS011;13509;50.760;6.080;2023-12-20T06:02:41;18.47;;;4.60;;
9080;SDS011;13509;50.760;6.080;2023-12-20T06:05:09;15.40;;;4.50;;
9080;SDS011;13509;50.760;6.080;2023-12-20T06:07:37;13.20;;;4.93;;
9080;SDS011;13509;50.760;6.080;2023-12-20T06:10:11;13.70;;;4.90;;
9080;SDS011;13509;50.760;6.080;2023-12-20T06:12:52;10.60;;;4.80;;
9080;SDS011;13509;50.760;6.080;2023-12-20T06:15:29;17.00;;;5.67;;
9080;SDS011;13509;50.760;6.080;2023-12-20T06:17:57;14.93;;;5.70;;
9080;SDS011;13509;50.760;6.080;2023-12-20T06:20:26;17.67;;;4.77;;
9080;SDS011;13509;50.760;6.080;2023-12-20T06:22:54;16.90;;;4.53;;
9080;SDS011;13509;50.760;6.080;2023-12-20T06:25:22;15.60;;;4.93;;
9080;SDS011;13509;50.760;6.080;2023-12-20T06:27:51;18.67;;;5.50;;
9080;SDS011;13509;50.760;6.080;2023-12-20T06:30:19;13.17;;;4.73;;
9080;SDS011;13509;50.760;6.080;2023-12-20T06:32:49;18.37;;;4.83;;
9080;SDS011;13509;50.760;6.080;2023-12-20T06:35:17;12.40;;;4.73;;
9080;SDS011;13509;50.760;6.080;2023-12-20T06:38:04;21.30;;;4.80;;
9080;SDS011;13509;50.760;6.080;2023-12-20T06:40:35;12.17;;;4.37;;
9080;SDS011;13509;50.760;6.080;2023-12-20T06:43:04;14.97;;;4.23;;
9080;SDS011;13509;50.760;6.080;2023-12-20T06:45:46;20.53;;;5.30;;
9080;SDS011;13509;50.760;6.080;2023-12-20T06:48:16;19.67;;;5.30;;
9080;SDS011;13509;50.760;6.080;2023-12-20T06:50:46;22.20;;;5.83;;
9080;SDS011;13509;50.760;6.080;2023-12-20T06:53:14;13.70;;;6.30;;
9080;SDS011;13509;50.760;6.080;2023-12-20T06:55:42;17.27;;;6.27;;
9080;SDS011;13509;50.760;6.080;2023-12-20T06:58:11;22.50;;;6.23;;
9080;SDS011;13509;50.760;6.080;2023-12-20T07:00:39;17.23;;;6.00;;
9080;SDS011;13509;50.760;6.080;2023-12-20T07:03:08;16.63;;;6.20;;
9080;SDS011;13509;50.760;6.080;2023-12-20T07:05:38;19.30;;;6.77;;
9080;SDS011;13509;50.760;6.080;2023-12-20T07:08:07;22.30;;;6.80;;
9080;SDS011;13509;50.760;6.080;2023-12-20T07:10:35;23.20;;;6.70;;
9080;SDS011;13509;50.760;6.080;2023-12-20T07:13:03;17.00;;;6.57;;
9080;SDS011;13509;50.760;6.080;2023-12-20T07:15:32;11.17;;;5.33;;
9080;SDS011;13509;50.760;6.080;2023-12-20T07:18:09;17.63;;;5.73;;
9080;SDS011;13509;50.760;6.080;2023-12-20T07:20:40;18.57;;;5.83;;
9080;SDS011;13509;50.760;6.080;2023-12-20T07:23:09;13.23;;;5.73;;
9080;SDS011;13509;50.760;6.080;2023-12-20T07:25:37;17.63;;;6.13;;
9080;SDS011;13509;50.760;6.080;2023-12-20T07:28:06;20.63;;;6.47;;
9080;SDS011;13509;50.760;6.080;2023-12-20T07:30:34;20.70;;;7.13;;
9080;SDS011;13509;50.760;6.080;2023-12-20T07:33:02;17.33;;;6.30;;
9080;SDS011;13509;50.760;6.080;2023-12-20T07:35:31;16.13;;;6.90;;
9080;SDS011;13509;50.760;6.080;2023-12-20T07:38:01;15.60;;;6.50;;
9080;SDS011;13509;50.760;6.080;2023-12-20T07:40:29;22.30;;;6.70;;
9080;SDS011;13509;50.760;6.080;2023-12-20T07:42:57;20.67;;;7.03;;
9080;SDS011;13509;50.760;6.080;2023-12-20T07:45:26;23.77;;;7.03;;
9080;SDS011;13509;50.760;6.080;2023-12-20T07:47:54;19.03;;;6.60;;
9080;SDS011;13509;50.760;6.080;2023-12-20T07:50:23;14.30;;;6.57;;
9080;SDS011;13509;50.760;6.080;2023-12-20T07:52:51;18.07;;;6.37;;
9080;SDS011;13509;50.760;6.080;2023-12-20T07:55:21;16.50;;;6.47;;
9080;SDS011;13509;50.760;6.080;2023-12-20T07:57:49;26.17;;;6.63;;
9080;SDS011;13509;50.760;6.080;2023-12-20T08:00:18;21.03;;;6.93;;
9080;SDS011;13509;50.760;6.080;2023-12-20T08:02:46;34.30;;;7.70;;
9080;SDS011;13509;50.760;6.080;2023-12-20T08:05:15;16.60;;;6.90;;
9080;SDS011;13509;50.760;6.080;2023-12-20T08:07:44;21.30;;;6.43;;
9080;SDS011;13509;50.760;6.080;2023-12-20T08:10:13;15.23;;;6.17;;
9080;SDS011;13509;50.760;6.080;2023-12-20T08:12:43;18.23;;;6.80;;
9080;SDS011;13509;50.760;6.080;2023-12-20T08:15:11;21.70;;;7.10;;
9080;SDS011;13509;50.760;6.080;2023-12-20T08:17:41;17.70;;;6.87;;
9080;SDS011;13509;50.760;6.080;2023-12-20T08:20:10;11.90;;;6.00;;
9080;SDS011;13509;50.760;6.080;2023-12-20T08:22:45;20.43;;;6.37;;
9080;SDS011;13509;50.760;6.080;2023-12-20T08:25:13;20.70;;;5.90;;
9080;SDS011;13509;50.760;6.080;2023-12-20T08:27:43;15.93;;;5.77;;
9080;SDS011;13509;50.760;6.080;2023-12-20T08:30:12;16.53;;;5.50;;
9080;SDS011;13509;50.760;6.080;2023-12-20T08:32:40;22.13;;;6.07;;
9080;SDS011;13509;50.760;6.080;2023-12-20T08:35:09;16.97;;;5.70;;
9080;SDS011;13509;50.760;6.080;2023-12-20T08:37:37;22.57;;;5.13;;
9080;SDS011;13509;50.760;6.080;2023-12-20T08:40:06;10.67;;;5.00;;
9080;SDS011;13509;50.760;6.080;2023-12-20T08:42:34;15.33;;;5.40;;
9080;SDS011;13509;50.760;6.080;2023-12-20T08:45:05;14.23;;;4.97;;
9080;SDS011;13509;50.760;6.080;2023-12-20T08:47:33;16.00;;;4.70;;
9080;SDS011;13509;50.760;6.080;2023-12-20T08:50:02;15.87;;;4.60;;
9080;SDS011;13509;50.760;6.080;2023-12-20T08:52:30;14.20;;;4.50;;
9080;SDS011;13509;50.760;6.080;2023-12-20T08:54:58;13.57;;;4.50;;
9080;SDS011;13509;50.760;6.080;2023-12-20T08:57:27;13.80;;;4.07;;
9080;SDS011;13509;50.760;6.080;2023-12-20T08:59:55;13.97;;;3.80;;
9080;SDS011;13509;50.760;6.080;2023-12-20T09:02:25;14.03;;;4.50;;
9080;SDS011;13509;50.760;6.080;2023-12-20T09:04:53;12.13;;;4.40;;
9080;SDS011;13509;50.760;6.080;2023-12-20T09:07:22;12.07;;;4.70;;
9080;SDS011;13509;50.760;6.080;2023-12-20T09:09:50;13.50;;;3.97;;
9080;SDS011;13509;50.760;6.080;2023-12-20T09:12:19;19.30;;;4.50;;
9080;SDS011;13509;50.760;6.080;2023-12-20T09:14:48;15.50;;;4.30;;
9080;SDS011;13509;50.760;6.080;2023-12-20T09:17:17;17.37;;;4.80;;
9080;SDS011;13509;50.760;6.080;2023-12-20T09:19:46;12.77;;;4.10;;
9080;SDS011;13509;50.760;6.080;2023-12-20T09:22:15;13.90;;;4.10;;
9080;SDS011;13509;50.760;6.080;2023-12-20T09:24:43;10.07;;;3.67;;
9080;SDS011;13509;50.760;6.080;2023-12-20T09:27:12;17.03;;;4.00;;
9080;SDS011;13509;50.760;6.080;2023-12-20T09:29:40;14.27;;;4.00;;
9080;SDS011;13509;50.760;6.080;2023-12-20T09:32:09;14.57;;;4.17;;
9080;SDS011;13509;50.760;6.080;2023-12-20T09:34:37;15.57;;;4.20;;
9080;SDS011;13509;50.760;6.080;2023-12-20T09:37:07;14.17;;;3.67;;
9080;SDS011;13509;50.760;6.080;2023-12-20T09:39:36;21.80;;;4.30;;
9080;SDS011;13509;50.760;6.080;2023-12-20T09:42:05;9.77;;;3.60;;
9080;SDS011;13509;50.760;6.080;2023-12-20T09:44:33;19.03;;;3.83;;
9080;SDS011;13509;50.760;6.080;2023-12-20T09:47:03;12.10;;;3.97;;
9080;SDS011;13509;50.760;6.080;2023-12-20T09:49:32;11.47;;;3.80;;
9080;SDS011;13509;50.760;6.080;2023-12-20T09:52:00;14.37;;;4.20;;
9080;SDS011;13509;50.760;6.080;2023-12-20T09:54:30;12.83;;;4.03;;
9080;SDS011;13509;50.760;6.080;2023-12-20T09:56:59;14.10;;;4.10;;
9080;SDS011;13509;50.760;6.080;2023-12-20T09:59:27;9.93;;;3.90;;
9080;SDS011;13509;50.760;6.080;2023-12-20T10:01:55;18.30;;;3.60;;
9080;SDS011;13509;50.760;6.080;2023-12-20T10:04:24;12.47;;;3.73;;
9080;SDS011;13509;50.760;6.080;2023-12-20T10:06:56;11.30;;;3.20;;
9080;SDS011;13509;50.760;6.080;2023-12-20T10:09:24;14.00;;;3.57;;
9080;SDS011;13509;50.760;6.080;2023-12-20T10:11:55;11.57;;;3.60;;
9080;SDS011;13509;50.760;6.080;2023-12-20T10:14:23;15.27;;;3.83;;
9080;SDS011;13509;50.760;6.080;2023-12-20T10:16:52;12.57;;;3.90;;
9080;SDS011;13509;50.760;6.080;2023-12-20T10:19:21;14.03;;;4.00;;
9080;SDS011;13509;50.760;6.080;2023-12-20T10:21:50;15.60;;;3.57;;
9080;SDS011;13509;50.760;6.080;2023-12-20T10:24:19;16.23;;;3.97;;
9080;SDS011;13509;50.760;6.080;2023-12-20T10:26:55;13.73;;;4.30;;
9080;SDS011;13509;50.760;6.080;2023-12-20T10:29:31;13.93;;;4.03;;
9080;SDS011;13509;50.760;6.080;2023-12-20T10:32:05;9.77;;;3.33;;
9080;SDS011;13509;50.760;6.080;2023-12-20T10:34:49;10.40;;;3.37;;
9080;SDS011;13509;50.760;6.080;2023-12-20T10:37:18;10.47;;;3.27;;
9080;SDS011;13509;50.760;6.080;2023-12-20T10:39:47;7.33;;;3.07;;
9080;SDS011;13509;50.760;6.080;2023-12-20T10:42:19;10.37;;;3.43;;
9080;SDS011;13509;50.760;6.080;2023-12-20T10:44:49;8.90;;;3.40;;
9080;SDS011;13509;50.760;6.080;2023-12-20T10:47:17;8.73;;;3.00;;
9080;SDS011;13509;50.760;6.080;2023-12-20T10:49:47;12.03;;;3.13;;
9080;SDS011;13509;50.760;6.080;2023-12-20T10:52:15;10.27;;;3.90;;
9080;SDS011;13509;50.760;6.080;2023-12-20T10:54:44;14.80;;;3.73;;
9080;SDS011;13509;50.760;6.080;2023-12-20T10:57:13;11.23;;;3.30;;
9080;SDS011;13509;50.760;6.080;2023-12-20T10:59:43;13.47;;;3.20;;
9080;SDS011;13509;50.760;6.080;2023-12-20T11:02:16;12.97;;;2.90;;
9080;SDS011;13509;50.760;6.080;2023-12-20T11:04:47;14.10;;;3.00;;
9080;SDS011;13509;50.760;6.080;2023-12-20T11:07:20;14.07;;;3.97;;
9080;SDS011;13509;50.760;6.080;2023-12-20T11:09:54;11.40;;;3.40;;
9080;SDS011;13509;50.760;6.080;2023-12-20T11:12:28;12.73;;;3.67;;
9080;SDS011;13509;50.760;6.080;2023-12-20T11:15:01;9.93;;;3.00;;
9080;SDS011;13509;50.760;6.080;2023-12-20T11:17:31;12.53;;;4.20;;
9080;SDS011;13509;50.760;6.080;2023-12-20T11:20:07;14.87;;;4.03;;
9080;SDS011;13509;50.760;6.080;2023-12-20T11:22:37;12.50;;;3.33;;
9080;SDS011;13509;50.760;6.080;2023-12-20T11:25:09;10.00;;;3.10;;
9080;SDS011;13509;50.760;6.080;2023-12-20T11:27:40;12.03;;;3.87;;
9080;SDS011;13509;50.760;6.080;2023-12-20T11:30:12;12.47;;;3.13;;
9080;SDS011;13509;50.760;6.080;2023-12-20T11:32:43;11.33;;;3.23;;
9080;SDS011;13509;50.760;6.080;2023-12-20T11:35:17;12.97;;;3.20;;
9080;SDS011;13509;50.760;6.080;2023-12-20T11:37:47;9.87;;;3.20;;
9080;SDS011;13509;50.760;6.080;2023-12-20T11:40:16;13.63;;;3.53;;
9080;SDS011;13509;50.760;6.080;2023-12-20T11:42:46;7.80;;;3.07;;
9080;SDS011;13509;50.760;6.080;2023-12-20T11:45:18;10.37;;;3.30;;
9080;SDS011;13509;50.760;6.080;2023-12-20T11:47:49;11.47;;;3.20;;
9080;SDS011;13509;50.760;6.080;2023-12-20T11:50:18;9.20;;;3.20;;
9080;SDS011;13509;50.760;6.080;2023-12-20T11:52:47;10.63;;;3.60;;
9080;SDS011;13509;50.760;6.080;2023-12-20T11:55:15;10.47;;;3.33;;
9080;SDS011;13509;50.760;6.080;2023-12-20T11:57:43;10.87;;;3.77;;
9080;SDS011;13509;50.760;6.080;2023-12-20T12:00:13;11.80;;;3.27;;
9080;SDS011;13509;50.760;6.080;2023-12-20T12:02:43;9.53;;;3.00;;
9080;SDS011;13509;50.760;6.080;2023-12-20T12:05:13;15.13;;;3.90;;
9080;SDS011;13509;50.760;6.080;2023-12-20T12:07:43;11.23;;;3.43;;
9080;SDS011;13509;50.760;6.080;2023-12-20T12:10:11;12.57;;;3.27;;
9080;SDS011;13509;50.760;6.080;2023-12-20T12:12:40;11.47;;;3.70;;
9080;SDS011;13509;50.760;6.080;2023-12-20T12:15:09;16.03;;;4.23;;
9080;SDS011;13509;50.760;6.080;2023-12-20T12:17:37;11.90;;;3.33;;
9080;SDS011;13509;50.760;6.080;2023-12-20T12:20:07;11.07;;;3.20;;
9080;SDS011;13509;50.760;6.080;2023-12-20T12:22:36;13.77;;;3.83;;
9080;SDS011;13509;50.760;6.080;2023-12-20T12:25:11;11.97;;;3.43;;
9080;SDS011;13509;50.760;6.080;2023-12-20T12:27:40;9.53;;;3.30;;
9080;SDS011;13509;50.760;6.080;2023-12-20T12:30:10;9.77;;;2.93;;
9080;SDS011;13509;50.760;6.080;2023-12-20T12:32:39;13.17;;;3.03;;
9080;SDS011;13509;50.760;6.080;2023-12-20T12:35:10;15.13;;;3.80;;
9080;SDS011;13509;50.760;6.080;2023-12-20T12:37:38;13.57;;;3.80;;
9080;SDS011;13509;50.760;6.080;2023-12-20T12:40:09;7.00;;;3.13;;
9080;SDS011;13509;50.760;6.080;2023-12-20T12:42:37;13.40;;;3.53;;
9080;SDS011;13509;50.760;6.080;2023-12-20T12:45:06;12.07;;;3.63;;
9080;SDS011;13509;50.760;6.080;2023-12-20T12:47:35;10.07;;;2.77;;
9080;SDS011;13509;50.760;6.080;2023-12-20T12:50:03;9.47;;;3.10;;
9080;SDS011;13509;50.760;6.080;2023-12-20T12:52:34;9.60;;;3.17;;
9080;SDS011;13509;50.760;6.080;2023-12-20T12:55:03;11.57;;;3.73;;
9080;SDS011;13509;50.760;6.080;2023-12-20T12:57:31;12.70;;;3.03;;
9080;SDS011;13509;50.760;6.080;2023-12-20T13:00:00;9.53;;;3.40;;
9080;SDS011;13509;50.760;6.080;2023-12-20T13:02:30;12.13;;;3.07;;
9080;SDS011;13509;50.760;6.080;2023-12-20T13:04:58;11.60;;;3.40;;
9080;SDS011;13509;50.760;6.080;2023-12-20T13:07:29;13.23;;;3.83;;
9080;SDS011;13509;50.760;6.080;2023-12-20T13:09:58;10.53;;;3.50;;
9080;SDS011;13509;50.760;6.080;2023-12-20T13:12:27;13.37;;;3.63;;
9080;SDS011;13509;50.760;6.080;2023-12-20T13:14:56;11.53;;;3.67;;
9080;SDS011;13509;50.760;6.080;2023-12-20T13:17:24;13.50;;;3.37;;
9080;SDS011;13509;50.760;6.080;2023-12-20T13:19:55;9.93;;;3.50;;
9080;SDS011;13509;50.760;6.080;2023-12-20T13:22:24;17.70;;;3.80;;
9080;SDS011;13509;50.760;6.080;2023-12-20T13:24:52;8.60;;;3.63;;
9080;SDS011;13509;50.760;6.080;2023-12-20T13:27:22;17.00;;;4.10;;
9080;SDS011;13509;50.760;6.080;2023-12-20T13:29:50;11.33;;;3.60;;
9080;SDS011;13509;50.760;6.080;2023-12-20T13:32:18;18.10;;;3.90;;
9080;SDS011;13509;50.760;6.080;2023-12-20T13:34:47;14.97;;;4.33;;
9080;SDS011;13509;50.760;6.080;2023-12-20T13:37:16;12.00;;;3.80;;
9080;SDS011;13509;50.760;6.080;2023-12-20T13:39:45;12.33;;;3.57;;
9080;SDS011;13509;50.760;6.080;2023-12-20T13:42:13;9.50;;;3.43;;
9080;SDS011;13509;50.760;6.080;2023-12-20T13:44:43;12.40;;;4.13;;
9080;SDS011;13509;50.760;6.080;2023-12-20T13:47:13;12.23;;;4.00;;
9080;SDS011;13509;50.760;6.080;2023-12-20T13:49:41;14.27;;;5.10;;
9080;SDS011;13509;50.760;6.080;2023-12-20T13:52:09;13.73;;;5.40;;
9080;SDS011;13509;50.760;6.080;2023-12-20T13:54:38;13.70;;;4.60;;
9080;SDS011;13509;50.760;6.080;2023-12-20T13:57:06;13.23;;;4.57;;
9080;SDS011;13509;50.760;6.080;2023-12-20T13:59:52;14.63;;;4.10;;
9080;SDS011;13509;50.760;6.080;2023-12-20T14:02:23;12.40;;;4.07;;
9080;SDS011;13509;50.760;6.080;2023-12-20T14:04:53;16.63;;;5.10;;
9080;SDS011;13509;50.760;6.080;2023-12-20T14:07:21;14.43;;;4.27;;
9080;SDS011;13509;50.760;6.080;2023-12-20T14:09:50;14.13;;;4.60;;
9080;SDS011;13509;50.760;6.080;2023-12-20T14:12:18;14.57;;;4.57;;
9080;SDS011;13509;50.760;6.080;2023-12-20T14:14:47;16.50;;;4.10;;
9080;SDS011;13509;50.760;6.080;2023-12-20T14:17:17;14.67;;;4.60;;
9080;SDS011;13509;50.760;6.080;2023-12-20T14:19:46;18.57;;;4.90;;
9080;SDS011;13509;50.760;6.080;2023-12-20T14:22:14;18.83;;;4.10;;
9080;SDS011;13509;50.760;6.080;2023-12-20T14:24:43;17.97;;;4.63;;
9080;SDS011;13509;50.760;6.080;2023-12-20T14:27:12;15.97;;;5.07;;
9080;SDS011;13509;50.760;6.080;2023-12-20T14:29:40;18.53;;;4.93;;
9080;SDS011;13509;50.760;6.080;2023-12-20T14:32:08;12.13;;;4.77;;
9080;SDS011;13509;50.760;6.080;2023-12-20T14:34:38;13.17;;;4.10;;
9080;SDS011;13509;50.760;6.080;2023-12-20T14:37:06;16.23;;;5.20;;
9080;SDS011;13509;50.760;6.080;2023-12-20T14:39:35;20.40;;;5.03;;
9080;SDS011;13509;50.760;6.080;2023-12-20T14:42:05;14.57;;;4.50;;
9080;SDS011;13509;50.760;6.080;2023-12-20T14:44:37;16.60;;;5.10;;
9080;SDS011;13509;50.760;6.080;2023-12-20T14:47:05;14.63;;;5.80;;
9080;SDS011;13509;50.760;6.080;2023-12-20T14:49:34;11.50;;;4.00;;
9080;SDS011;13509;50.760;6.080;2023-12-20T14:52:03;11.23;;;5.13;;
9080;SDS011;13509;50.760;6.080;2023-12-20T14:54:32;11.07;;;4.50;;
9080;SDS011;13509;50.760;6.080;2023-12-20T14:57:00;13.17;;;3.63;;
9080;SDS011;13509;50.760;6.080;2023-12-20T14:59:31;13.97;;;4.93;;
9080;SDS011;13509;50.760;6.080;2023-12-20T15:01:59;14.20;;;4.20;;
9080;SDS011;13509;50.760;6.080;2023-12-20T15:04:31;16.07;;;4.57;;
9080;SDS011;13509;50.760;6.080;2023-12-20T15:06:59;15.60;;;4.23;;